チタ の空港の天気 - METARとTAF

チタ・カダラ空港 ( UIAA / HTA ) - ロシア チタ
飛行場実況気象(Metar)
観測時間09/25 10:30 YAKT (09/25 01:30 UTC)
風向・風速不定 1m/s
視程10km以上
天気現象
なし
気温8℃
湿度61%
気圧1019hPa
METARUIAA 250130Z VRB01MPS 9999 NSC 08/01 Q1019 R29/70D NOSIG RMK QFE705/0941
過去の天気等 Google飛行場航空写真 Wunderground天気予報

過去48時間のMETAR

飛行場予報(TAF)
発表時間: 9/25 08:00 YAKT (9/24 23:00 UTC)
予報対象時間: 25日9時 YAKT ~ 26日9時 YAKT
風向・風速北東 3m/s 瞬間風速 8m/s
視程10km以上
全天の4割程度の積乱雲 雲底高度 1220m
TAF UIAA 242300Z 2500/2524 04003G08MPS 9999 SCT040CB